ETH339B HUEN-HAAB
Flight info
| Callsign | ETH339B |
|---|---|
| Flight time | 1h 38m |
| Altitude | 33000 |
| Route | IMVIP2B IMVIP UL432 EKBUL EKBUL1A |
| Aircraft | B738/M-SDE2E3FGHIRWXY/LB1 |
Departure
| Time | 2026-04-24 21:50 |
|---|---|
| Airport | Entebbe International Airport (HUEN) |
Arrival
| Time | 2026-04-24 23:28 |
|---|---|
| Airport | Addis Ababa Bole International Airport (HAAB) |
| Time | Latitude | Longitude | Altitude | Speed | Heading |
|---|---|---|---|---|---|
| 2026-04-24 21:09 | 0.04275 | 32.44224 | 3779 ft | 0 kts | 82° |
| 2026-04-24 21:38 | 0.04273 | 32.44208 | 3779 ft | 4 kts | 82° |
| 2026-04-24 21:38 | 0.04269 | 32.44182 | 3782 ft | 4 kts | 82° |
| 2026-04-24 21:38 | 0.04266 | 32.44161 | 3784 ft | 4 kts | 77° |
| 2026-04-24 21:39 | 0.04257 | 32.44138 | 3779 ft | 4 kts | 51° |
| 2026-04-24 21:39 | 0.04238 | 32.44119 | 3784 ft | 4 kts | 39° |
| 2026-04-24 21:39 | 0.04219 | 32.44102 | 3779 ft | 4 kts | 63° |
| 2026-04-24 21:39 | 0.04216 | 32.44094 | 3779 ft | 0 kts | 81° |
| 2026-04-24 21:43 | 0.04218 | 32.44110 | 3779 ft | 6 kts | 78° |
| 2026-04-24 21:43 | 0.04264 | 32.44136 | 3779 ft | 9 kts | 356° |
| 2026-04-24 21:43 | 0.04328 | 32.44130 | 3783 ft | 9 kts | 355° |
| 2026-04-24 21:43 | 0.04390 | 32.44121 | 3787 ft | 9 kts | 351° |
| 2026-04-24 21:44 | 0.04458 | 32.44110 | 3779 ft | 11 kts | 352° |
| 2026-04-24 21:44 | 0.04542 | 32.44098 | 3780 ft | 12 kts | 351° |
| 2026-04-24 21:44 | 0.04626 | 32.44085 | 3779 ft | 12 kts | 352° |
| 2026-04-24 21:44 | 0.04709 | 32.44074 | 3779 ft | 12 kts | 353° |
| 2026-04-24 21:45 | 0.04789 | 32.44064 | 3779 ft | 11 kts | 351° |
| 2026-04-24 21:45 | 0.04860 | 32.44035 | 3788 ft | 11 kts | 320° |
| 2026-04-24 21:45 | 0.04930 | 32.44007 | 3785 ft | 11 kts | 349° |
| 2026-04-24 21:45 | 0.05004 | 32.43995 | 3786 ft | 11 kts | 352° |
| 2026-04-24 21:46 | 0.05076 | 32.43986 | 3788 ft | 10 kts | 353° |
| 2026-04-24 21:46 | 0.05148 | 32.43978 | 3795 ft | 10 kts | 353° |
| 2026-04-24 21:46 | 0.05218 | 32.43966 | 3785 ft | 10 kts | 351° |
| 2026-04-24 21:46 | 0.05281 | 32.43941 | 3788 ft | 10 kts | 327° |
| 2026-04-24 21:47 | 0.05330 | 32.43894 | 3785 ft | 10 kts | 307° |
| 2026-04-24 21:47 | 0.05359 | 32.43854 | 3785 ft | 12 kts | 304° |
| 2026-04-24 21:47 | 0.05427 | 32.43749 | 3783 ft | 14 kts | 304° |
| 2026-04-24 21:47 | 0.05474 | 32.43668 | 3782 ft | 12 kts | 269° |
| 2026-04-24 21:48 | 0.05430 | 32.43636 | 3781 ft | 0 kts | 178° |
| 2026-04-24 21:49 | 0.05429 | 32.43636 | 3781 ft | 0 kts | 178° |
| 2026-04-24 21:49 | 0.05353 | 32.43646 | 3780 ft | 32 kts | 171° |
| 2026-04-24 21:49 | 0.04899 | 32.43712 | 3779 ft | 99 kts | 172° |
| 2026-04-24 21:50 | 0.04018 | 32.43836 | 3792 ft | 155 kts | 172° |
| 2026-04-24 21:50 | 0.02828 | 32.44012 | 4061 ft | 181 kts | 172° |
| 2026-04-24 21:50 | 0.01980 | 32.44115 | 4564 ft | 184 kts | 174° |
| 2026-04-24 21:50 | 0.00729 | 32.44227 | 5388 ft | 179 kts | 173° |
| 2026-04-24 21:51 | -0.00482 | 32.44509 | 6099 ft | 182 kts | 164° |
| 2026-04-24 21:51 | -0.01775 | 32.44799 | 6515 ft | 201 kts | 173° |
| 2026-04-24 21:51 | -0.03247 | 32.44960 | 6703 ft | 224 kts | 174° |
| 2026-04-24 21:51 | -0.04872 | 32.45140 | 6922 ft | 246 kts | 173° |
| 2026-04-24 21:52 | -0.06657 | 32.45354 | 7102 ft | 271 kts | 173° |
| 2026-04-24 21:52 | -0.08568 | 32.45599 | 7655 ft | 281 kts | 172° |
| 2026-04-24 21:52 | -0.10500 | 32.45965 | 8344 ft | 286 kts | 158° |
| 2026-04-24 21:52 | -0.12096 | 32.47126 | 9047 ft | 288 kts | 128° |
| 2026-04-24 21:53 | -0.12990 | 32.48912 | 9779 ft | 292 kts | 103° |
| 2026-04-24 21:53 | -0.13070 | 32.50942 | 10376 ft | 301 kts | 81° |
| 2026-04-24 21:53 | -0.12460 | 32.53024 | 10571 ft | 324 kts | 70° |
| 2026-04-24 21:53 | -0.11605 | 32.55184 | 10736 ft | 345 kts | 68° |
| 2026-04-24 21:54 | -0.10667 | 32.57463 | 10884 ft | 364 kts | 68° |
| 2026-04-24 21:54 | -0.09706 | 32.59860 | 10986 ft | 380 kts | 69° |
| 2026-04-24 21:54 | -0.08735 | 32.62354 | 10992 ft | 387 kts | 69° |
| 2026-04-24 21:54 | -0.07695 | 32.64849 | 11355 ft | 391 kts | 62° |
| 2026-04-24 21:55 | -0.05973 | 32.66923 | 12108 ft | 389 kts | 39° |
| 2026-04-24 21:55 | -0.03638 | 32.68269 | 12735 ft | 391 kts | 20° |
| 2026-04-24 21:55 | -0.01014 | 32.68850 | 13271 ft | 395 kts | 3° |
| 2026-04-24 21:55 | 0.01735 | 32.68604 | 13798 ft | 399 kts | 352° |
| 2026-04-24 21:56 | 0.04490 | 32.68174 | 14321 ft | 402 kts | 352° |
| 2026-04-24 21:56 | 0.07264 | 32.67758 | 14804 ft | 404 kts | 353° |
| 2026-04-24 21:56 | 0.10052 | 32.67357 | 15276 ft | 407 kts | 353° |
| 2026-04-24 21:56 | 0.12871 | 32.66963 | 15756 ft | 409 kts | 353° |
| 2026-04-24 21:57 | 0.15697 | 32.66572 | 16205 ft | 411 kts | 353° |
| 2026-04-24 21:57 | 0.18539 | 32.66180 | 16629 ft | 414 kts | 354° |
| 2026-04-24 21:57 | 0.21402 | 32.65783 | 17074 ft | 416 kts | 354° |
| 2026-04-24 21:57 | 0.24272 | 32.65384 | 17487 ft | 418 kts | 354° |
| 2026-04-24 21:58 | 0.27165 | 32.64981 | 17890 ft | 421 kts | 354° |
| 2026-04-24 21:58 | 0.30079 | 32.64771 | 18258 ft | 421 kts | 7° |
| 2026-04-24 21:58 | 0.32891 | 32.65508 | 18652 ft | 419 kts | 26° |
| 2026-04-24 21:58 | 0.35366 | 32.67021 | 19027 ft | 419 kts | 40° |
| 2026-04-24 21:59 | 0.37346 | 32.69153 | 19325 ft | 422 kts | 53° |
| 2026-04-24 21:59 | 0.39060 | 32.71535 | 19662 ft | 424 kts | 54° |
| 2026-04-24 21:59 | 0.40762 | 32.73961 | 19962 ft | 427 kts | 55° |
| 2026-04-24 21:59 | 0.42471 | 32.76400 | 20263 ft | 430 kts | 54° |
| 2026-04-24 22:00 | 0.44198 | 32.78846 | 20587 ft | 432 kts | 54° |
| 2026-04-24 22:00 | 0.45944 | 32.81295 | 20883 ft | 433 kts | 54° |
| 2026-04-24 22:00 | 0.47706 | 32.83751 | 21138 ft | 436 kts | 54° |
| 2026-04-24 22:00 | 0.49481 | 32.86217 | 21386 ft | 439 kts | 54° |
| 2026-04-24 22:01 | 0.51272 | 32.88701 | 21662 ft | 441 kts | 54° |
| 2026-04-24 22:01 | 0.53067 | 32.91190 | 21943 ft | 443 kts | 54° |
| 2026-04-24 22:01 | 0.54870 | 32.93692 | 22205 ft | 444 kts | 54° |
| 2026-04-24 22:01 | 0.56678 | 32.96200 | 22456 ft | 446 kts | 54° |
| 2026-04-24 22:02 | 0.58496 | 32.98722 | 22692 ft | 448 kts | 54° |
| 2026-04-24 22:02 | 0.60322 | 33.01257 | 22890 ft | 451 kts | 54° |
| 2026-04-24 22:02 | 0.62156 | 33.03802 | 23089 ft | 453 kts | 54° |
| 2026-04-24 22:02 | 0.64014 | 33.06351 | 23306 ft | 454 kts | 51° |
| 2026-04-24 22:03 | 0.66199 | 33.08627 | 23500 ft | 455 kts | 41° |
| 2026-04-24 22:03 | 0.68624 | 33.10665 | 23741 ft | 456 kts | 39° |
| 2026-04-24 22:03 | 0.71075 | 33.12685 | 23927 ft | 457 kts | 39° |
| 2026-04-24 22:03 | 0.73517 | 33.14731 | 24095 ft | 459 kts | 40° |
| 2026-04-24 22:04 | 0.75915 | 33.16787 | 24271 ft | 461 kts | 40° |
| 2026-04-24 22:04 | 0.78336 | 33.18894 | 24462 ft | 462 kts | 41° |
| 2026-04-24 22:04 | 0.80759 | 33.21009 | 24622 ft | 464 kts | 41° |
| 2026-04-24 22:04 | 0.83133 | 33.23198 | 24771 ft | 466 kts | 44° |
| 2026-04-24 22:05 | 0.85426 | 33.25495 | 24913 ft | 468 kts | 45° |
| 2026-04-24 22:05 | 0.87685 | 33.27841 | 25087 ft | 469 kts | 46° |
| 2026-04-24 22:05 | 0.89934 | 33.30198 | 25266 ft | 469 kts | 46° |
| 2026-04-24 22:05 | 0.92193 | 33.32559 | 25438 ft | 470 kts | 46° |
| 2026-04-24 22:06 | 0.94465 | 33.34916 | 25585 ft | 472 kts | 45° |
| 2026-04-24 22:06 | 0.96757 | 33.37278 | 25726 ft | 473 kts | 45° |
| 2026-04-24 22:06 | 0.99056 | 33.39635 | 25863 ft | 474 kts | 45° |
| 2026-04-24 22:06 | 1.01356 | 33.41987 | 26242 ft | 469 kts | 45° |
| 2026-04-24 22:07 | 1.03599 | 33.44276 | 27165 ft | 453 kts | 45° |
| 2026-04-24 22:07 | 1.05767 | 33.46488 | 28054 ft | 438 kts | 45° |
| 2026-04-24 22:07 | 1.07866 | 33.48630 | 28868 ft | 426 kts | 45° |
| 2026-04-24 22:07 | 1.09907 | 33.50738 | 29543 ft | 419 kts | 46° |
| 2026-04-24 22:08 | 1.11895 | 33.52846 | 30069 ft | 415 kts | 45° |
| 2026-04-24 22:08 | 1.13912 | 33.54901 | 30479 ft | 414 kts | 45° |
| 2026-04-24 22:08 | 1.15942 | 33.56945 | 30814 ft | 415 kts | 44° |
| 2026-04-24 22:08 | 1.17974 | 33.58991 | 31122 ft | 415 kts | 45° |
| 2026-04-24 22:09 | 1.20003 | 33.61044 | 31491 ft | 414 kts | 45° |
| 2026-04-24 22:09 | 1.22019 | 33.63091 | 31870 ft | 413 kts | 45° |
| 2026-04-24 22:09 | 1.24034 | 33.65144 | 32189 ft | 413 kts | 45° |
| 2026-04-24 22:09 | 1.26045 | 33.67195 | 32500 ft | 414 kts | 45° |
| 2026-04-24 22:10 | 1.28055 | 33.69247 | 32828 ft | 413 kts | 45° |
| 2026-04-24 22:10 | 1.30039 | 33.71323 | 33105 ft | 413 kts | 46° |
| 2026-04-24 22:10 | 1.32056 | 33.73398 | 33076 ft | 418 kts | 44° |
| 2026-04-24 22:11 | 1.36193 | 33.77490 | 33091 ft | 417 kts | 45° |
| 2026-04-24 22:11 | 1.40200 | 33.81606 | 33087 ft | 412 kts | 45° |
| 2026-04-24 22:12 | 1.44186 | 33.85715 | 33104 ft | 412 kts | 45° |
| 2026-04-24 22:12 | 1.48225 | 33.89855 | 33116 ft | 422 kts | 45° |
| 2026-04-24 22:13 | 1.52351 | 33.94074 | 33115 ft | 433 kts | 45° |
| 2026-04-24 22:13 | 1.56612 | 33.98429 | 33112 ft | 443 kts | 45° |
| 2026-04-24 22:14 | 1.60963 | 34.02875 | 33113 ft | 452 kts | 45° |
| 2026-04-24 22:14 | 1.65401 | 34.07411 | 33112 ft | 460 kts | 45° |
| 2026-04-24 22:15 | 1.69913 | 34.12024 | 33109 ft | 467 kts | 45° |
| 2026-04-24 22:15 | 1.74481 | 34.16694 | 33101 ft | 471 kts | 45° |
| 2026-04-24 22:16 | 1.79072 | 34.21390 | 33102 ft | 473 kts | 45° |
| 2026-04-24 22:16 | 1.83647 | 34.26123 | 33099 ft | 474 kts | 47° |
| 2026-04-24 22:17 | 1.87968 | 34.31093 | 33090 ft | 474 kts | 49° |
| 2026-04-24 22:17 | 1.92203 | 34.36124 | 33090 ft | 472 kts | 49° |
| 2026-04-24 22:18 | 1.96446 | 34.41119 | 33084 ft | 470 kts | 49° |
| 2026-04-24 22:18 | 2.00693 | 34.46079 | 33078 ft | 469 kts | 49° |
| 2026-04-24 22:19 | 2.04934 | 34.51017 | 33073 ft | 467 kts | 49° |
| 2026-04-24 22:19 | 2.09162 | 34.55942 | 33065 ft | 466 kts | 49° |
| 2026-04-24 22:20 | 2.13377 | 34.60855 | 33060 ft | 466 kts | 49° |
| 2026-04-24 22:20 | 2.17594 | 34.65770 | 33050 ft | 465 kts | 49° |
| 2026-04-24 22:21 | 2.21805 | 34.70679 | 33036 ft | 465 kts | 49° |
| 2026-04-24 22:21 | 2.25991 | 34.75557 | 33027 ft | 465 kts | 49° |
| 2026-04-24 22:22 | 2.30207 | 34.80474 | 33021 ft | 466 kts | 49° |
| 2026-04-24 22:22 | 2.34431 | 34.85402 | 33005 ft | 467 kts | 49° |
| 2026-04-24 22:23 | 2.38660 | 34.90335 | 32978 ft | 467 kts | 49° |
| 2026-04-24 22:23 | 2.42894 | 34.95271 | 32986 ft | 467 kts | 48° |
| 2026-04-24 22:24 | 2.47284 | 35.00048 | 32980 ft | 466 kts | 43° |
| 2026-04-24 22:24 | 2.51968 | 35.04524 | 32973 ft | 465 kts | 42° |
| 2026-04-24 22:25 | 2.56653 | 35.08969 | 32960 ft | 464 kts | 43° |
| 2026-04-24 22:25 | 2.61306 | 35.13435 | 32941 ft | 463 kts | 43° |
| 2026-04-24 22:26 | 2.65934 | 35.17906 | 32924 ft | 462 kts | 43° |
| 2026-04-24 22:26 | 2.70556 | 35.22377 | 32910 ft | 462 kts | 43° |
| 2026-04-24 22:27 | 2.75170 | 35.26839 | 32902 ft | 461 kts | 43° |
| 2026-04-24 22:27 | 2.79781 | 35.31297 | 32870 ft | 461 kts | 43° |
| 2026-04-24 22:28 | 2.84367 | 35.35730 | 32858 ft | 461 kts | 43° |
| 2026-04-24 22:28 | 2.88982 | 35.40191 | 32849 ft | 462 kts | 43° |
| 2026-04-24 22:29 | 2.95913 | 35.46896 | 32840 ft | 463 kts | 43° |
| 2026-04-24 22:29 | 3.00544 | 35.51376 | 32835 ft | 463 kts | 43° |
| 2026-04-24 22:30 | 3.05176 | 35.55856 | 32831 ft | 464 kts | 43° |
| 2026-04-24 22:30 | 3.09835 | 35.60318 | 32832 ft | 463 kts | 39° |
| 2026-04-24 22:31 | 3.15223 | 35.63774 | 32847 ft | 460 kts | 26° |
| 2026-04-24 22:31 | 3.20931 | 35.66696 | 32826 ft | 461 kts | 26° |
| 2026-04-24 22:32 | 3.26628 | 35.69630 | 32833 ft | 461 kts | 26° |
| 2026-04-24 22:32 | 3.32296 | 35.72595 | 32835 ft | 460 kts | 26° |
| 2026-04-24 22:33 | 3.37978 | 35.75583 | 32832 ft | 460 kts | 26° |
| 2026-04-24 22:33 | 3.43648 | 35.78567 | 32834 ft | 460 kts | 26° |
| 2026-04-24 22:34 | 3.49316 | 35.81551 | 32829 ft | 460 kts | 26° |
| 2026-04-24 22:34 | 3.54983 | 35.84535 | 32832 ft | 460 kts | 26° |
| 2026-04-24 22:35 | 3.60641 | 35.87512 | 32838 ft | 459 kts | 26° |
| 2026-04-24 22:35 | 3.66299 | 35.90491 | 32843 ft | 459 kts | 26° |
| 2026-04-24 22:36 | 3.71950 | 35.93465 | 32838 ft | 459 kts | 26° |
| 2026-04-24 22:36 | 3.77598 | 35.96440 | 32846 ft | 458 kts | 26° |
| 2026-04-24 22:37 | 3.83248 | 35.99412 | 32848 ft | 459 kts | 26° |
| 2026-04-24 22:37 | 3.88888 | 36.02385 | 32848 ft | 458 kts | 26° |
| 2026-04-24 22:38 | 3.94479 | 36.05332 | 32851 ft | 458 kts | 26° |
| 2026-04-24 22:38 | 4.00116 | 36.08301 | 32851 ft | 458 kts | 26° |
| 2026-04-24 22:39 | 4.05757 | 36.11269 | 32857 ft | 457 kts | 26° |
| 2026-04-24 22:39 | 4.11385 | 36.14228 | 32862 ft | 457 kts | 26° |
| 2026-04-24 22:40 | 4.17018 | 36.17190 | 32865 ft | 457 kts | 26° |
| 2026-04-24 22:40 | 4.22653 | 36.20156 | 32872 ft | 458 kts | 26° |
| 2026-04-24 22:41 | 4.28296 | 36.23127 | 32871 ft | 458 kts | 26° |
| 2026-04-24 22:41 | 4.32987 | 36.25596 | 32881 ft | 458 kts | 26° |
| 2026-04-24 22:42 | 4.38631 | 36.28567 | 32882 ft | 458 kts | 26° |
| 2026-04-24 22:42 | 4.44279 | 36.31543 | 32898 ft | 459 kts | 26° |
| 2026-04-24 22:43 | 4.49939 | 36.34525 | 32884 ft | 460 kts | 26° |
| 2026-04-24 22:43 | 4.55599 | 36.37507 | 32903 ft | 459 kts | 26° |
| 2026-04-24 22:44 | 4.61263 | 36.40493 | 32903 ft | 459 kts | 26° |
| 2026-04-24 22:44 | 4.66912 | 36.43470 | 32903 ft | 459 kts | 26° |
| 2026-04-24 22:45 | 4.72568 | 36.46451 | 32920 ft | 459 kts | 26° |
| 2026-04-24 22:45 | 4.78223 | 36.49432 | 32918 ft | 459 kts | 26° |
| 2026-04-24 22:46 | 4.83878 | 36.52415 | 32925 ft | 459 kts | 26° |
| 2026-04-24 22:46 | 4.89532 | 36.55395 | 32926 ft | 459 kts | 26° |
| 2026-04-24 22:47 | 4.95184 | 36.58378 | 32938 ft | 459 kts | 26° |
| 2026-04-24 22:47 | 5.00837 | 36.61361 | 32944 ft | 459 kts | 26° |
| 2026-04-24 22:48 | 5.06490 | 36.64344 | 32946 ft | 459 kts | 26° |
| 2026-04-24 22:48 | 5.12105 | 36.67308 | 32955 ft | 459 kts | 26° |
| 2026-04-24 22:49 | 5.17763 | 36.70295 | 32967 ft | 460 kts | 26° |
| 2026-04-24 22:49 | 5.23425 | 36.73285 | 32970 ft | 460 kts | 26° |
| 2026-04-24 22:50 | 5.29088 | 36.76276 | 32973 ft | 460 kts | 26° |
| 2026-04-24 22:50 | 5.34755 | 36.79270 | 32985 ft | 460 kts | 26° |
| 2026-04-24 22:51 | 5.40424 | 36.82265 | 32994 ft | 460 kts | 26° |
| 2026-04-24 22:51 | 5.46090 | 36.85260 | 32978 ft | 460 kts | 26° |
| 2026-04-24 22:52 | 5.51745 | 36.88248 | 33000 ft | 459 kts | 26° |
| 2026-04-24 22:52 | 5.57403 | 36.91240 | 33006 ft | 459 kts | 26° |
| 2026-04-24 22:53 | 5.63048 | 36.94227 | 33005 ft | 459 kts | 26° |
| 2026-04-24 22:53 | 5.68702 | 36.97217 | 33014 ft | 459 kts | 26° |
| 2026-04-24 22:54 | 5.74353 | 37.00205 | 33018 ft | 459 kts | 26° |
| 2026-04-24 22:54 | 5.79971 | 37.03178 | 33018 ft | 460 kts | 26° |
| 2026-04-24 22:55 | 5.85630 | 37.06174 | 33015 ft | 460 kts | 26° |
| 2026-04-24 22:55 | 5.91293 | 37.09173 | 33029 ft | 460 kts | 26° |
| 2026-04-24 22:56 | 5.96953 | 37.12170 | 33034 ft | 460 kts | 26° |
| 2026-04-24 22:56 | 6.02616 | 37.15170 | 33033 ft | 460 kts | 26° |
| 2026-04-24 22:57 | 6.08271 | 37.18167 | 33057 ft | 460 kts | 26° |
| 2026-04-24 22:57 | 6.13931 | 37.21167 | 33058 ft | 460 kts | 26° |
| 2026-04-24 22:58 | 6.19587 | 37.24165 | 33070 ft | 459 kts | 26° |
| 2026-04-24 22:58 | 6.25240 | 37.27162 | 33079 ft | 460 kts | 26° |
| 2026-04-24 22:59 | 6.30899 | 37.30163 | 33085 ft | 460 kts | 26° |
| 2026-04-24 23:00 | 6.39383 | 37.34664 | 33101 ft | 459 kts | 26° |
| 2026-04-24 23:00 | 6.45041 | 37.37667 | 33103 ft | 459 kts | 26° |
| 2026-04-24 23:01 | 6.50688 | 37.40664 | 33119 ft | 459 kts | 26° |
| 2026-04-24 23:01 | 6.56307 | 37.43648 | 33125 ft | 460 kts | 26° |
| 2026-04-24 23:02 | 6.61965 | 37.46652 | 33131 ft | 460 kts | 26° |
| 2026-04-24 23:02 | 6.67618 | 37.49655 | 33135 ft | 459 kts | 26° |
| 2026-04-24 23:03 | 6.73260 | 37.52652 | 33149 ft | 458 kts | 26° |
| 2026-04-24 23:03 | 6.78889 | 37.55641 | 33159 ft | 458 kts | 26° |
| 2026-04-24 23:04 | 6.84521 | 37.58637 | 33175 ft | 458 kts | 26° |
| 2026-04-24 23:04 | 6.90160 | 37.61636 | 33179 ft | 459 kts | 26° |
| 2026-04-24 23:05 | 6.95812 | 37.64643 | 33180 ft | 460 kts | 26° |
| 2026-04-24 23:05 | 7.01477 | 37.67657 | 33190 ft | 460 kts | 26° |
| 2026-04-24 23:06 | 7.07140 | 37.70671 | 33195 ft | 461 kts | 26° |
| 2026-04-24 23:06 | 7.12808 | 37.73689 | 33203 ft | 461 kts | 26° |
| 2026-04-24 23:07 | 7.18470 | 37.76705 | 33206 ft | 460 kts | 27° |
| 2026-04-24 23:07 | 7.24120 | 37.79716 | 33215 ft | 459 kts | 27° |
| 2026-04-24 23:08 | 7.29765 | 37.82724 | 33224 ft | 459 kts | 27° |
| 2026-04-24 23:08 | 7.35406 | 37.85729 | 33222 ft | 459 kts | 27° |
| 2026-04-24 23:09 | 7.41009 | 37.88717 | 33212 ft | 459 kts | 27° |
| 2026-04-24 23:09 | 7.46654 | 37.91727 | 33219 ft | 459 kts | 27° |
| 2026-04-24 23:10 | 7.52296 | 37.94736 | 33226 ft | 458 kts | 27° |
| 2026-04-24 23:10 | 7.57930 | 37.97743 | 33233 ft | 458 kts | 27° |
| 2026-04-24 23:11 | 7.63561 | 38.00749 | 33239 ft | 458 kts | 27° |
| 2026-04-24 23:11 | 7.69190 | 38.03754 | 33243 ft | 458 kts | 27° |
| 2026-04-24 23:12 | 7.74822 | 38.06761 | 33138 ft | 459 kts | 27° |
| 2026-04-24 23:12 | 7.77669 | 38.08282 | 32493 ft | 464 kts | 27° |
| 2026-04-24 23:12 | 7.80505 | 38.09813 | 31822 ft | 462 kts | 27° |
| 2026-04-24 23:12 | 7.83347 | 38.11336 | 31103 ft | 463 kts | 27° |
| 2026-04-24 23:13 | 7.86172 | 38.12892 | 30345 ft | 463 kts | 26° |
| 2026-04-24 23:13 | 7.89037 | 38.14397 | 29554 ft | 465 kts | 27° |
| 2026-04-24 23:13 | 7.91907 | 38.15914 | 28719 ft | 467 kts | 26° |
| 2026-04-24 23:13 | 7.94790 | 38.17431 | 27847 ft | 469 kts | 26° |
| 2026-04-24 23:14 | 7.97678 | 38.18970 | 26928 ft | 470 kts | 27° |
| 2026-04-24 23:14 | 8.00571 | 38.20515 | 26094 ft | 471 kts | 27° |
| 2026-04-24 23:14 | 8.03457 | 38.22062 | 25440 ft | 467 kts | 28° |
| 2026-04-24 23:14 | 8.06312 | 38.23595 | 24771 ft | 463 kts | 28° |
| 2026-04-24 23:15 | 8.09147 | 38.25116 | 24104 ft | 460 kts | 28° |
| 2026-04-24 23:15 | 8.11961 | 38.26623 | 23449 ft | 455 kts | 28° |
| 2026-04-24 23:15 | 8.14749 | 38.28113 | 22784 ft | 451 kts | 28° |
| 2026-04-24 23:15 | 8.17592 | 38.29457 | 22007 ft | 451 kts | 22° |
| 2026-04-24 23:16 | 8.20503 | 38.30585 | 21354 ft | 447 kts | 21° |
| 2026-04-24 23:16 | 8.23408 | 38.31680 | 20700 ft | 444 kts | 21° |
| 2026-04-24 23:16 | 8.26286 | 38.32776 | 20057 ft | 440 kts | 22° |
| 2026-04-24 23:16 | 8.29128 | 38.33883 | 19421 ft | 436 kts | 22° |
| 2026-04-24 23:17 | 8.31939 | 38.34999 | 18792 ft | 432 kts | 23° |
| 2026-04-24 23:17 | 8.34723 | 38.36118 | 18172 ft | 428 kts | 23° |
| 2026-04-24 23:17 | 8.37474 | 38.37229 | 17549 ft | 424 kts | 23° |
| 2026-04-24 23:17 | 8.40201 | 38.38331 | 16941 ft | 420 kts | 23° |
| 2026-04-24 23:18 | 8.42888 | 38.39416 | 16653 ft | 408 kts | 23° |
| 2026-04-24 23:18 | 8.45482 | 38.40461 | 16476 ft | 395 kts | 23° |
| 2026-04-24 23:18 | 8.47990 | 38.41472 | 16307 ft | 383 kts | 23° |
| 2026-04-24 23:18 | 8.50435 | 38.42458 | 16080 ft | 373 kts | 23° |
| 2026-04-24 23:19 | 8.52788 | 38.43407 | 15852 ft | 366 kts | 23° |
| 2026-04-24 23:19 | 8.55158 | 38.44363 | 15624 ft | 358 kts | 23° |
| 2026-04-24 23:19 | 8.57452 | 38.45288 | 15391 ft | 352 kts | 23° |
| 2026-04-24 23:19 | 8.59706 | 38.46198 | 15169 ft | 345 kts | 23° |
| 2026-04-24 23:20 | 8.61886 | 38.47080 | 14956 ft | 339 kts | 23° |
| 2026-04-24 23:20 | 8.64059 | 38.47958 | 14741 ft | 334 kts | 23° |
| 2026-04-24 23:20 | 8.66201 | 38.48822 | 14528 ft | 329 kts | 23° |
| 2026-04-24 23:20 | 8.68325 | 38.49677 | 14172 ft | 331 kts | 23° |
| 2026-04-24 23:21 | 8.70440 | 38.50621 | 13750 ft | 332 kts | 28° |
| 2026-04-24 23:21 | 8.72465 | 38.51724 | 13409 ft | 329 kts | 30° |
| 2026-04-24 23:21 | 8.74432 | 38.52834 | 13062 ft | 319 kts | 30° |
| 2026-04-24 23:21 | 8.76342 | 38.53898 | 12739 ft | 308 kts | 30° |
| 2026-04-24 23:22 | 8.78197 | 38.54910 | 12474 ft | 298 kts | 29° |
| 2026-04-24 23:22 | 8.79996 | 38.55883 | 12175 ft | 289 kts | 29° |
| 2026-04-24 23:22 | 8.81741 | 38.56823 | 11942 ft | 277 kts | 29° |
| 2026-04-24 23:22 | 8.83312 | 38.57811 | 11840 ft | 256 kts | 39° |
| 2026-04-24 23:23 | 8.84633 | 38.58924 | 11696 ft | 238 kts | 41° |
| 2026-04-24 23:23 | 8.85853 | 38.59975 | 11607 ft | 223 kts | 41° |
| 2026-04-24 23:23 | 8.86989 | 38.60953 | 11492 ft | 205 kts | 42° |
| 2026-04-24 23:23 | 8.88061 | 38.61808 | 11286 ft | 190 kts | 37° |
| 2026-04-24 23:24 | 8.89133 | 38.62595 | 10799 ft | 191 kts | 37° |
| 2026-04-24 23:24 | 8.90206 | 38.63381 | 10443 ft | 187 kts | 37° |
| 2026-04-24 23:24 | 8.91255 | 38.64151 | 10251 ft | 184 kts | 37° |
| 2026-04-24 23:24 | 8.92279 | 38.64906 | 10024 ft | 179 kts | 38° |
| 2026-04-24 23:25 | 8.93040 | 38.65864 | 9836 ft | 175 kts | 62° |
| 2026-04-24 23:25 | 8.93633 | 38.66942 | 9699 ft | 174 kts | 61° |
| 2026-04-24 23:25 | 8.94228 | 38.67999 | 9500 ft | 173 kts | 60° |
| 2026-04-24 23:25 | 8.94762 | 38.69070 | 9330 ft | 170 kts | 70° |
| 2026-04-24 23:26 | 8.95108 | 38.70213 | 9169 ft | 171 kts | 74° |
| 2026-04-24 23:26 | 8.95434 | 38.71372 | 8997 ft | 171 kts | 75° |
| 2026-04-24 23:26 | 8.95752 | 38.72528 | 8861 ft | 172 kts | 76° |
| 2026-04-24 23:26 | 8.96063 | 38.73709 | 8691 ft | 176 kts | 76° |
| 2026-04-24 23:27 | 8.96397 | 38.74891 | 8487 ft | 175 kts | 74° |
| 2026-04-24 23:27 | 8.96753 | 38.76054 | 8232 ft | 171 kts | 75° |
| 2026-04-24 23:27 | 8.97090 | 38.77204 | 7941 ft | 169 kts | 73° |
| 2026-04-24 23:27 | 8.97433 | 38.78330 | 7688 ft | 166 kts | 76° |
| 2026-04-24 23:28 | 8.97728 | 38.79382 | 7617 ft | 133 kts | 74° |
| 2026-04-24 23:28 | 8.97931 | 38.80067 | 7621 ft | 70 kts | 73° |
| 2026-04-24 23:28 | 8.97994 | 38.80283 | 7623 ft | 13 kts | 75° |
| 2026-04-24 23:28 | 8.98048 | 38.80328 | 7622 ft | 8 kts | 350° |
| 2026-04-24 23:29 | 8.98101 | 38.80315 | 7621 ft | 8 kts | 346° |
| 2026-04-24 23:29 | 8.98149 | 38.80320 | 7620 ft | 6 kts | 45° |
| 2026-04-24 23:29 | 8.98165 | 38.80356 | 7620 ft | 5 kts | 70° |
| 2026-04-24 23:29 | 8.98173 | 38.80381 | 7620 ft | 3 kts | 73° |
| 2026-04-24 23:30 | 8.98177 | 38.80396 | 7620 ft | 1 kts | 74° |
| 2026-04-24 23:30 | 8.98179 | 38.80401 | 7620 ft | 1 kts | 74° |
| 2026-04-24 23:30 | 8.98182 | 38.80413 | 7620 ft | 4 kts | 75° |
| 2026-04-24 23:30 | 8.98193 | 38.80455 | 7620 ft | 9 kts | 76° |
| 2026-04-24 23:31 | 8.98208 | 38.80516 | 7620 ft | 9 kts | 75° |
| 2026-04-24 23:31 | 8.98234 | 38.80567 | 7620 ft | 7 kts | 30° |
| 2026-04-24 23:31 | 8.98267 | 38.80566 | 7620 ft | 2 kts | 350° |
| 2026-04-24 23:31 | 8.98270 | 38.80566 | 7622 ft | 0 kts | 350° |
| 2026-04-24 23:44 | 8.98277 | 38.80563 | 7620 ft | 0 kts | 343° |